sensor_id;sensor_type;location;lat;lon;timestamp;pressure;altitude;pressure_sealevel;temperature;humidity
48792;BME280;34587;48.816;9.420;2023-05-11T04:15:23;98551.59;;;10.67;100.00
48792;BME280;34587;48.816;9.420;2023-05-11T04:17:49;98557.59;;;10.69;100.00
48792;BME280;34587;48.816;9.420;2023-05-11T04:20:14;98557.59;;;10.69;100.00
48792;BME280;34587;48.816;9.420;2023-05-11T04:22:39;98560.13;;;10.72;100.00
48792;BME280;34587;48.816;9.420;2023-05-11T04:25:05;98555.72;;;10.75;100.00
48792;BME280;34587;48.816;9.420;2023-05-11T04:27:33;98556.06;;;10.97;100.00
48792;BME280;34587;48.816;9.420;2023-05-11T04:29:59;98553.53;;;10.96;100.00
48792;BME280;34587;48.816;9.420;2023-05-11T04:32:25;98557.31;;;10.81;100.00
48792;BME280;34587;48.816;9.420;2023-05-11T04:34:50;98558.22;;;10.80;100.00
48792;BME280;34587;48.816;9.420;2023-05-11T04:37:15;98554.78;;;10.78;100.00
48792;BME280;34587;48.816;9.420;2023-05-11T04:39:41;98567.31;;;10.98;100.00
48792;BME280;34587;48.816;9.420;2023-05-11T04:42:06;98555.31;;;10.94;100.00
48792;BME280;34587;48.816;9.420;2023-05-11T04:44:31;98563.03;;;10.95;100.00
48792;BME280;34587;48.816;9.420;2023-05-11T04:46:56;98565.28;;;11.11;100.00
48792;BME280;34587;48.816;9.420;2023-05-11T04:49:22;98574.91;;;11.05;100.00
48792;BME280;34587;48.816;9.420;2023-05-11T04:51:47;98566.38;;;11.00;100.00
48792;BME280;34587;48.816;9.420;2023-05-11T04:54:12;98566.53;;;10.94;100.00
48792;BME280;34587;48.816;9.420;2023-05-11T04:56:38;98562.53;;;11.17;100.00
48792;BME280;34587;48.816;9.420;2023-05-11T04:59:08;98568.66;;;11.14;100.00
48792;BME280;34587;48.816;9.420;2023-05-11T05:01:33;98570.56;;;11.06;100.00
48792;BME280;34587;48.816;9.420;2023-05-11T05:03:58;98571.94;;;11.22;100.00
48792;BME280;34587;48.816;9.420;2023-05-11T05:06:23;98564.16;;;11.21;100.00
48792;BME280;34587;48.816;9.420;2023-05-11T05:08:49;98576.38;;;11.16;100.00
48792;BME280;34587;48.816;9.420;2023-05-11T05:11:14;98576.38;;;11.16;100.00
48792;BME280;34587;48.816;9.420;2023-05-11T05:13:40;98576.13;;;11.28;100.00
48792;BME280;34587;48.816;9.420;2023-05-11T05:16:05;98583.00;;;11.29;100.00
48792;BME280;34587;48.816;9.420;2023-05-11T05:18:31;98581.44;;;11.22;100.00
48792;BME280;34587;48.816;9.420;2023-05-11T05:20:56;98585.84;;;11.18;100.00
48792;BME280;34587;48.816;9.420;2023-05-11T05:23:22;98586.00;;;11.11;100.00
48792;BME280;34587;48.816;9.420;2023-05-11T05:25:48;98580.97;;;11.04;100.00
48792;BME280;34587;48.816;9.420;2023-05-11T05:28:13;98588.81;;;11.01;100.00
48792;BME280;34587;48.816;9.420;2023-05-11T05:30:38;98579.28;;;11.03;100.00
48792;BME280;34587;48.816;9.420;2023-05-11T05:33:04;98585.22;;;11.09;100.00
48792;BME280;34587;48.816;9.420;2023-05-11T05:35:29;98584.38;;;11.08;100.00
48792;BME280;34587;48.816;9.420;2023-05-11T05:37:54;98585.06;;;11.15;100.00
48792;BME280;34587;48.816;9.420;2023-05-11T05:40:20;98585.00;;;11.18;100.00
48792;BME280;34587;48.816;9.420;2023-05-11T05:42:45;98593.44;;;11.26;100.00
48792;BME280;34587;48.816;9.420;2023-05-11T05:45:10;98588.19;;;11.29;100.00
48792;BME280;34587;48.816;9.420;2023-05-11T05:47:36;98592.31;;;11.36;100.00
48792;BME280;34587;48.816;9.420;2023-05-11T05:50:02;98586.97;;;11.44;100.00
48792;BME280;34587;48.816;9.420;2023-05-11T05:52:27;98590.63;;;11.35;100.00
48792;BME280;34587;48.816;9.420;2023-05-11T05:54:53;98592.94;;;11.47;100.00
48792;BME280;34587;48.816;9.420;2023-05-11T05:57:18;98588.44;;;11.54;100.00
48792;BME280;34587;48.816;9.420;2023-05-11T05:59:43;98591.66;;;11.64;100.00
48792;BME280;34587;48.816;9.420;2023-05-11T06:02:09;98593.81;;;11.82;100.00
48792;BME280;34587;48.816;9.420;2023-05-11T06:04:35;98595.66;;;11.77;100.00
48792;BME280;34587;48.816;9.420;2023-05-11T06:07:01;98601.13;;;11.65;100.00
48792;BME280;34587;48.816;9.420;2023-05-11T06:09:26;98601.84;;;11.71;100.00
48792;BME280;34587;48.816;9.420;2023-05-11T06:11:51;98597.75;;;11.63;100.00
48792;BME280;34587;48.816;9.420;2023-05-11T06:14:18;98597.66;;;11.66;100.00
48792;BME280;34587;48.816;9.420;2023-05-11T06:16:44;98607.88;;;11.72;100.00
48792;BME280;34587;48.816;9.420;2023-05-11T06:19:09;98600.78;;;11.78;100.00
48792;BME280;34587;48.816;9.420;2023-05-11T06:21:34;98599.13;;;11.76;100.00
48792;BME280;34587;48.816;9.420;2023-05-11T06:24:00;98598.59;;;11.97;100.00
48792;BME280;34587;48.816;9.420;2023-05-11T06:26:25;98602.34;;;11.87;100.00
48792;BME280;34587;48.816;9.420;2023-05-11T06:28:52;98597.06;;;11.90;100.00
48792;BME280;34587;48.816;9.420;2023-05-11T06:31:18;98594.53;;;11.87;100.00
48792;BME280;34587;48.816;9.420;2023-05-11T06:33:43;98602.25;;;11.90;100.00
48792;BME280;34587;48.816;9.420;2023-05-11T06:36:09;98609.22;;;11.88;100.00
48792;BME280;34587;48.816;9.420;2023-05-11T06:38:34;98606.09;;;11.74;100.00
48792;BME280;34587;48.816;9.420;2023-05-11T06:40:59;98600.91;;;11.74;100.00
48792;BME280;34587;48.816;9.420;2023-05-11T06:43:25;98602.34;;;11.87;100.00
48792;BME280;34587;48.816;9.420;2023-05-11T06:45:50;98601.22;;;11.62;100.00
48792;BME280;34587;48.816;9.420;2023-05-11T06:48:16;98600.00;;;11.76;100.00
48792;BME280;34587;48.816;9.420;2023-05-11T06:50:41;98598.47;;;11.68;99.40
48792;BME280;34587;48.816;9.420;2023-05-11T06:53:06;98594.75;;;11.78;98.75
48792;BME280;34587;48.816;9.420;2023-05-11T06:55:32;98597.88;;;11.92;98.11
48792;BME280;34587;48.816;9.420;2023-05-11T06:57:57;98599.00;;;11.82;97.36
48792;BME280;34587;48.816;9.420;2023-05-11T07:00:23;98589.00;;;12.01;97.62
48792;BME280;34587;48.816;9.420;2023-05-11T07:02:48;98599.16;;;12.08;96.99
48792;BME280;34587;48.816;9.420;2023-05-11T07:05:13;98595.31;;;12.23;96.49
48792;BME280;34587;48.816;9.420;2023-05-11T07:07:38;98603.84;;;12.27;97.93
48792;BME280;34587;48.816;9.420;2023-05-11T07:10:07;98598.22;;;12.42;94.99
48792;BME280;34587;48.816;9.420;2023-05-11T07:12:33;98599.13;;;12.41;94.95
48792;BME280;34587;48.816;9.420;2023-05-11T07:14:58;98606.44;;;12.27;96.52
48792;BME280;34587;48.816;9.420;2023-05-11T07:17:23;98601.69;;;12.43;93.22
48792;BME280;34587;48.816;9.420;2023-05-11T07:19:48;98601.19;;;12.59;92.09
48792;BME280;34587;48.816;9.420;2023-05-11T07:22:16;98600.63;;;12.50;94.92
48792;BME280;34587;48.816;9.420;2023-05-11T07:24:41;98607.81;;;12.40;95.84
48792;BME280;34587;48.816;9.420;2023-05-11T07:27:07;98606.31;;;12.33;92.37
48792;BME280;34587;48.816;9.420;2023-05-11T07:29:32;98600.16;;;12.35;91.24
48792;BME280;34587;48.816;9.420;2023-05-11T07:31:57;98604.72;;;12.58;92.52
48792;BME280;34587;48.816;9.420;2023-05-11T07:34:23;98603.47;;;12.72;92.63
48792;BME280;34587;48.816;9.420;2023-05-11T07:36:49;98608.75;;;12.69;93.79
48792;BME280;34587;48.816;9.420;2023-05-11T07:39:14;98610.34;;;12.73;91.59
48792;BME280;34587;48.816;9.420;2023-05-11T07:41:41;98601.38;;;12.83;92.13
48792;BME280;34587;48.816;9.420;2023-05-11T07:44:06;98604.72;;;12.58;93.91
48792;BME280;34587;48.816;9.420;2023-05-11T07:46:31;98612.13;;;12.41;94.74
48792;BME280;34587;48.816;9.420;2023-05-11T07:48:57;98612.06;;;12.74;94.43
48792;BME280;34587;48.816;9.420;2023-05-11T07:51:22;98610.47;;;12.98;92.58
48792;BME280;34587;48.816;9.420;2023-05-11T07:53:48;98610.81;;;12.85;92.96
48792;BME280;34587;48.816;9.420;2023-05-11T07:56:13;98610.81;;;12.57;91.65
48792;BME280;34587;48.816;9.420;2023-05-11T07:58:38;98612.41;;;12.61;92.41
48792;BME280;34587;48.816;9.420;2023-05-11T08:01:04;98604.63;;;12.90;91.22
48792;BME280;34587;48.816;9.420;2023-05-11T08:03:29;98612.84;;;12.76;90.35
48792;BME280;34587;48.816;9.420;2023-05-11T08:05:54;98593.91;;;13.00;89.88
48792;BME280;34587;48.816;9.420;2023-05-11T08:08:20;98596.44;;;13.31;90.79
48792;BME280;34587;48.816;9.420;2023-05-11T08:10:45;98600.63;;;13.07;88.62
48792;BME280;34587;48.816;9.420;2023-05-11T08:13:10;98598.13;;;13.04;91.30
48792;BME280;34587;48.816;9.420;2023-05-11T08:15:35;98600.91;;;12.98;87.90
48792;BME280;34587;48.816;9.420;2023-05-11T08:18:01;98595.09;;;12.90;90.45
48792;BME280;34587;48.816;9.420;2023-05-11T08:20:27;98604.22;;;13.03;88.48
48792;BME280;34587;48.816;9.420;2023-05-11T08:22:52;98599.84;;;13.05;90.48
48792;BME280;34587;48.816;9.420;2023-05-11T08:25:17;98604.88;;;12.82;90.08
48792;BME280;34587;48.816;9.420;2023-05-11T08:27:43;98610.94;;;12.53;91.27
48792;BME280;34587;48.816;9.420;2023-05-11T08:30:09;98610.44;;;12.07;93.24
48792;BME280;34587;48.816;9.420;2023-05-11T08:32:35;98612.72;;;12.80;95.96
48792;BME280;34587;48.816;9.420;2023-05-11T08:35:01;98608.34;;;12.82;93.43
48792;BME280;34587;48.816;9.420;2023-05-11T08:37:28;98601.25;;;13.16;92.50
48792;BME280;34587;48.816;9.420;2023-05-11T08:39:53;98608.09;;;13.18;93.69
48792;BME280;34587;48.816;9.420;2023-05-11T08:42:20;98605.72;;;13.40;90.58
48792;BME280;34587;48.816;9.420;2023-05-11T08:44:48;98604.88;;;13.91;89.25
48792;BME280;34587;48.816;9.420;2023-05-11T08:47:14;98605.81;;;13.63;88.43
48792;BME280;34587;48.816;9.420;2023-05-11T08:49:39;98604.59;;;13.47;89.37
48792;BME280;34587;48.816;9.420;2023-05-11T08:52:05;98605.22;;;13.55;86.71
48792;BME280;34587;48.816;9.420;2023-05-11T08:54:31;98606.13;;;13.54;87.99
48792;BME280;34587;48.816;9.420;2023-05-11T08:56:57;98605.81;;;13.63;87.13
48792;BME280;34587;48.816;9.420;2023-05-11T08:59:27;98612.22;;;13.80;85.32
48792;BME280;34587;48.816;9.420;2023-05-11T09:01:55;98607.44;;;14.18;86.43
48792;BME280;34587;48.816;9.420;2023-05-11T09:04:22;98608.38;;;13.65;84.54
48792;BME280;34587;48.816;9.420;2023-05-11T09:06:48;98609.53;;;14.06;84.98
48792;BME280;34587;48.816;9.420;2023-05-11T09:09:14;98603.09;;;13.93;86.63
48792;BME280;34587;48.816;9.420;2023-05-11T09:11:43;98600.94;;;14.04;85.53
48792;BME280;34587;48.816;9.420;2023-05-11T09:14:08;98604.88;;;13.91;88.74
48792;BME280;34587;48.816;9.420;2023-05-11T09:16:33;98609.22;;;14.15;85.28
48792;BME280;34587;48.816;9.420;2023-05-11T09:19:00;98607.53;;;14.14;84.06
48792;BME280;34587;48.816;9.420;2023-05-11T09:21:31;98600.72;;;14.60;82.85
48792;BME280;34587;48.816;9.420;2023-05-11T09:23:57;98606.91;;;14.08;82.27
48792;BME280;34587;48.816;9.420;2023-05-11T09:26:26;98600.41;;;13.70;84.46
48792;BME280;34587;48.816;9.420;2023-05-11T09:28:56;98602.56;;;13.57;87.09
48792;BME280;34587;48.816;9.420;2023-05-11T09:34:20;98609.28;;;13.64;83.67
48792;BME280;34587;48.816;9.420;2023-05-11T09:36:51;98595.81;;;14.51;82.58
48792;BME280;34587;48.816;9.420;2023-05-11T09:39:16;98593.44;;;14.69;82.24
48792;BME280;34587;48.816;9.420;2023-05-11T09:41:45;98601.78;;;14.05;82.08
48792;BME280;34587;48.816;9.420;2023-05-11T09:44:12;98595.41;;;14.13;84.09
48792;BME280;34587;48.816;9.420;2023-05-11T09:46:42;98605.09;;;13.85;83.95
48792;BME280;34587;48.816;9.420;2023-05-11T09:49:09;98601.03;;;13.76;83.69
48792;BME280;34587;48.816;9.420;2023-05-11T09:51:36;98601.72;;;13.28;85.50
48792;BME280;34587;48.816;9.420;2023-05-11T09:54:16;98604.84;;;13.11;91.00
48792;BME280;34587;48.816;9.420;2023-05-11T09:56:50;98602.59;;;12.99;90.97
48792;BME280;34587;48.816;9.420;2023-05-11T09:59:38;98607.53;;;13.65;87.35
48792;BME280;34587;48.816;9.420;2023-05-11T10:04:55;98599.44;;;13.97;84.00
48792;BME280;34587;48.816;9.420;2023-05-11T10:07:30;98594.09;;;14.50;81.40
48792;BME280;34587;48.816;9.420;2023-05-11T10:10:03;98599.94;;;14.08;85.74
48792;BME280;34587;48.816;9.420;2023-05-11T10:12:30;98586.97;;;14.30;85.13
48792;BME280;34587;48.816;9.420;2023-05-11T10:15:02;98600.06;;;14.29;83.44
48792;BME280;34587;48.816;9.420;2023-05-11T10:17:29;98594.22;;;14.47;84.81
48792;BME280;34587;48.816;9.420;2023-05-11T10:19:55;98589.38;;;14.61;85.00
48792;BME280;34587;48.816;9.420;2023-05-11T10:22:21;98601.06;;;14.73;80.73
48792;BME280;34587;48.816;9.420;2023-05-11T10:24:49;98595.84;;;14.01;83.25
48792;BME280;34587;48.816;9.420;2023-05-11T10:27:14;98596.59;;;13.80;87.13
48792;BME280;34587;48.816;9.420;2023-05-11T10:29:41;98594.66;;;13.85;86.79
48792;BME280;34587;48.816;9.420;2023-05-11T10:32:09;98594.22;;;13.72;84.89
48792;BME280;34587;48.816;9.420;2023-05-11T10:34:35;98590.19;;;13.63;88.46
48792;BME280;34587;48.816;9.420;2023-05-11T10:37:01;98591.00;;;13.66;84.54
48792;BME280;34587;48.816;9.420;2023-05-11T10:39:28;98588.94;;;14.00;85.97
48792;BME280;34587;48.816;9.420;2023-05-11T10:47:43;98589.91;;;14.46;85.22
48792;BME280;34587;48.816;9.420;2023-05-11T11:03:38;98577.97;;;14.15;79.87
48792;BME280;34587;48.816;9.420;2023-05-11T11:06:04;98576.19;;;14.41;75.60
48792;BME280;34587;48.816;9.420;2023-05-11T11:08:56;98571.63;;;14.48;80.95
48792;BME280;34587;48.816;9.420;2023-05-11T11:11:30;98574.97;;;14.51;78.03
48792;BME280;34587;48.816;9.420;2023-05-11T11:13:56;98574.03;;;14.29;79.83
48792;BME280;34587;48.816;9.420;2023-05-11T11:16:22;98579.84;;;14.35;78.18
48792;BME280;34587;48.816;9.420;2023-05-11T11:18:49;98577.75;;;13.72;78.44
48792;BME280;34587;48.816;9.420;2023-05-11T11:21:41;98577.44;;;13.81;80.13
48792;BME280;34587;48.816;9.420;2023-05-11T11:24:06;98578.47;;;14.50;82.70
48792;BME280;34587;48.816;9.420;2023-05-11T11:26:45;98572.19;;;14.31;80.57
48792;BME280;34587;48.816;9.420;2023-05-11T11:29:11;98568.25;;;14.44;81.08
48792;BME280;34587;48.816;9.420;2023-05-11T11:31:37;98572.97;;;14.81;80.93
48792;BME280;34587;48.816;9.420;2023-05-11T11:39:19;98569.88;;;14.48;78.42
48792;BME280;34587;48.816;9.420;2023-05-11T11:41:45;98574.66;;;14.10;76.30
48792;BME280;34587;48.816;9.420;2023-05-11T11:44:20;98576.28;;;14.14;81.83
48792;BME280;34587;48.816;9.420;2023-05-11T11:46:46;98566.53;;;14.43;83.63
48792;BME280;34587;48.816;9.420;2023-05-11T11:49:12;98566.44;;;14.70;82.55
48792;BME280;34587;48.816;9.420;2023-05-11T11:51:37;98560.09;;;15.21;81.48
48792;BME280;34587;48.816;9.420;2023-05-11T11:54:04;98557.06;;;15.94;77.91
48792;BME280;34587;48.816;9.420;2023-05-11T12:01:23;98568.97;;;16.01;74.20
48792;BME280;34587;48.816;9.420;2023-05-11T12:04:20;98570.25;;;16.11;74.98
48792;BME280;34587;48.816;9.420;2023-05-11T12:06:54;98569.16;;;15.54;76.35
48792;BME280;34587;48.816;9.420;2023-05-11T12:09:21;98563.38;;;15.26;73.27
48792;BME280;34587;48.816;9.420;2023-05-11T12:11:47;98566.41;;;14.93;76.98
48792;BME280;34587;48.816;9.420;2023-05-11T12:14:14;98559.19;;;15.43;73.09
48792;BME280;34587;48.816;9.420;2023-05-11T12:16:39;98559.09;;;15.45;74.79
48792;BME280;34587;48.816;9.420;2023-05-11T12:19:05;98562.94;;;14.93;74.44
48792;BME280;34587;48.816;9.420;2023-05-11T12:21:31;98562.16;;;14.90;74.73
48792;BME280;34587;48.816;9.420;2023-05-11T12:24:04;98559.28;;;15.83;72.69
48792;BME280;34587;48.816;9.420;2023-05-11T12:26:31;98559.03;;;15.89;70.92
48792;BME280;34587;48.816;9.420;2023-05-11T12:31:37;98556.41;;;15.68;71.61
48792;BME280;34587;48.816;9.420;2023-05-11T12:34:03;98556.47;;;15.25;73.96
48792;BME280;34587;48.816;9.420;2023-05-11T12:36:29;98557.38;;;15.66;74.02
48792;BME280;34587;48.816;9.420;2023-05-11T12:38:54;98564.31;;;14.57;73.85
48792;BME280;34587;48.816;9.420;2023-05-11T12:41:21;98549.38;;;15.06;75.74
48792;BME280;34587;48.816;9.420;2023-05-11T12:43:48;98556.72;;;15.19;78.12
48792;BME280;34587;48.816;9.420;2023-05-11T12:46:13;98554.09;;;14.97;77.81
48792;BME280;34587;48.816;9.420;2023-05-11T12:48:39;98545.75;;;15.31;76.89
48792;BME280;34587;48.816;9.420;2023-05-11T12:51:05;98542.88;;;15.16;74.12
48792;BME280;34587;48.816;9.420;2023-05-11T12:53:34;98540.97;;;14.98;74.95
48792;BME280;34587;48.816;9.420;2023-05-11T12:56:02;98540.06;;;15.21;74.62
48792;BME280;34587;48.816;9.420;2023-05-11T12:58:39;98527.75;;;16.45;69.96
48792;BME280;34587;48.816;9.420;2023-05-11T13:01:05;98531.44;;;16.98;70.35
48792;BME280;34587;48.816;9.420;2023-05-11T13:03:33;98526.88;;;17.38;65.57
48792;BME280;34587;48.816;9.420;2023-05-11T13:06:05;98517.44;;;18.03;62.23
48792;BME280;34587;48.816;9.420;2023-05-11T13:08:32;98521.06;;;18.34;61.68
48792;BME280;34587;48.816;9.420;2023-05-11T13:11:19;98530.94;;;16.52;64.29
48792;BME280;34587;48.816;9.420;2023-05-11T13:13:47;98523.66;;;17.85;64.43
48792;BME280;34587;48.816;9.420;2023-05-11T13:16:31;98519.00;;;17.38;63.13
48792;BME280;34587;48.816;9.420;2023-05-11T13:19:01;98516.66;;;16.22;66.24
48792;BME280;34587;48.816;9.420;2023-05-11T13:21:27;98508.22;;;17.61;64.81
48792;BME280;34587;48.816;9.420;2023-05-11T13:23:53;98499.84;;;18.38;61.32
48792;BME280;34587;48.816;9.420;2023-05-11T13:26:27;98503.59;;;17.84;64.74
48792;BME280;34587;48.816;9.420;2023-05-11T13:28:53;98498.00;;;18.07;60.32
48792;BME280;34587;48.816;9.420;2023-05-11T13:31:18;98502.97;;;17.79;60.82
48792;BME280;34587;48.816;9.420;2023-05-11T13:33:51;98505.84;;;16.86;61.96
48792;BME280;34587;48.816;9.420;2023-05-11T13:36:17;98500.47;;;16.51;64.23
48792;BME280;34587;48.816;9.420;2023-05-11T13:38:42;98493.63;;;17.04;57.64
48792;BME280;34587;48.816;9.420;2023-05-11T13:41:08;98494.31;;;16.90;62.56
48792;BME280;34587;48.816;9.420;2023-05-11T13:43:34;98489.25;;;17.39;59.24
48792;BME280;34587;48.816;9.420;2023-05-11T13:45:59;98483.72;;;16.55;59.14
48792;BME280;34587;48.816;9.420;2023-05-11T13:48:25;98484.81;;;17.76;56.67
48792;BME280;34587;48.816;9.420;2023-05-11T13:50:50;98489.16;;;16.32;62.32
48792;BME280;34587;48.816;9.420;2023-05-11T13:53:16;98481.22;;;16.90;62.41
48792;BME280;34587;48.816;9.420;2023-05-11T13:55:41;98481.88;;;17.47;58.51
48792;BME280;34587;48.816;9.420;2023-05-11T13:58:08;98473.53;;;17.73;57.58
48792;BME280;34587;48.816;9.420;2023-05-11T14:00:33;98479.25;;;16.57;59.67
48792;BME280;34587;48.816;9.420;2023-05-11T14:02:59;98468.34;;;16.85;59.93
48792;BME280;34587;48.816;9.420;2023-05-11T14:05:24;98472.31;;;16.56;61.30
48792;BME280;34587;48.816;9.420;2023-05-11T14:07:50;98477.72;;;15.76;61.87
48792;BME280;34587;48.816;9.420;2023-05-11T14:10:16;98467.84;;;16.58;61.02
48792;BME280;34587;48.816;9.420;2023-05-11T14:12:41;98467.38;;;16.69;60.33
48792;BME280;34587;48.816;9.420;2023-05-11T14:15:07;98462.84;;;16.73;60.76
48792;BME280;34587;48.816;9.420;2023-05-11T14:17:32;98457.84;;;17.39;57.53
48792;BME280;34587;48.816;9.420;2023-05-11T14:19:58;98458.44;;;17.61;56.48
48792;BME280;34587;48.816;9.420;2023-05-11T14:22:23;98459.84;;;17.34;55.12
48792;BME280;34587;48.816;9.420;2023-05-11T14:24:48;98464.06;;;16.47;56.46
48792;BME280;34587;48.816;9.420;2023-05-11T14:27:14;98461.44;;;17.02;55.53
48792;BME280;34587;48.816;9.420;2023-05-11T14:29:39;98458.22;;;17.14;58.50
48792;BME280;34587;48.816;9.420;2023-05-11T14:32:05;98463.50;;;16.95;57.31
48792;BME280;34587;48.816;9.420;2023-05-11T14:34:30;98461.44;;;16.84;56.04
48792;BME280;34587;48.816;9.420;2023-05-11T14:36:55;98460.78;;;17.33;55.11
48792;BME280;34587;48.816;9.420;2023-05-11T14:39:21;98457.94;;;17.88;52.94
48792;BME280;34587;48.816;9.420;2023-05-11T14:41:46;98456.97;;;17.73;51.71
48792;BME280;34587;48.816;9.420;2023-05-11T14:44:11;98453.94;;;16.77;57.37
48792;BME280;34587;48.816;9.420;2023-05-11T14:46:37;98457.19;;;16.63;59.80
48792;BME280;34587;48.816;9.420;2023-05-11T14:49:02;98450.31;;;16.05;58.48
48792;BME280;34587;48.816;9.420;2023-05-11T14:51:28;98443.50;;;16.01;59.88
48792;BME280;34587;48.816;9.420;2023-05-11T14:53:53;98440.31;;;16.13;60.18
48792;BME280;34587;48.816;9.420;2023-05-11T14:56:18;98446.47;;;15.93;59.73
48792;BME280;34587;48.816;9.420;2023-05-11T14:58:44;98445.06;;;16.05;60.80
48792;BME280;34587;48.816;9.420;2023-05-11T15:01:10;98439.81;;;15.67;63.92
48792;BME280;34587;48.816;9.420;2023-05-11T15:03:36;98439.13;;;15.62;62.14
48792;BME280;34587;48.816;9.420;2023-05-11T15:06:02;98445.59;;;15.74;60.14
48792;BME280;34587;48.816;9.420;2023-05-11T15:08:28;98443.88;;;15.32;62.06
48792;BME280;34587;48.816;9.420;2023-05-11T15:10:53;98443.56;;;15.40;61.05
48792;BME280;34587;48.816;9.420;2023-05-11T15:13:19;98441.59;;;15.65;60.71
48792;BME280;34587;48.816;9.420;2023-05-11T15:15:44;98439.84;;;16.05;59.40
48792;BME280;34587;48.816;9.420;2023-05-11T15:18:09;98441.25;;;15.93;59.09
48792;BME280;34587;48.816;9.420;2023-05-11T15:20:38;98445.75;;;15.90;60.19
48792;BME280;34587;48.816;9.420;2023-05-11T15:23:03;98445.34;;;15.99;60.94
48792;BME280;34587;48.816;9.420;2023-05-11T15:25:31;98443.06;;;16.48;59.77
48792;BME280;34587;48.816;9.420;2023-05-11T15:27:56;98445.38;;;15.58;62.10
48792;BME280;34587;48.816;9.420;2023-05-11T15:30:21;98447.44;;;15.72;61.11
48792;BME280;34587;48.816;9.420;2023-05-11T15:32:47;98451.13;;;15.46;63.58
48792;BME280;34587;48.816;9.420;2023-05-11T15:35:12;98441.03;;;15.98;62.33
48792;BME280;34587;48.816;9.420;2023-05-11T15:37:39;98441.53;;;16.44;58.92
48792;BME280;34587;48.816;9.420;2023-05-11T15:40:05;98449.09;;;15.32;62.89
48792;BME280;34587;48.816;9.420;2023-05-11T15:42:32;98449.56;;;15.22;63.07
48792;BME280;34587;48.816;9.420;2023-05-11T15:44:58;98443.53;;;15.60;63.13
48792;BME280;34587;48.816;9.420;2023-05-11T15:47:23;98445.16;;;15.64;61.86
48792;BME280;34587;48.816;9.420;2023-05-11T15:49:48;98446.25;;;15.98;61.77
48792;BME280;34587;48.816;9.420;2023-05-11T15:52:13;98453.78;;;15.85;62.16
48792;BME280;34587;48.816;9.420;2023-05-11T15:54:39;98455.22;;;15.11;64.68
48792;BME280;34587;48.816;9.420;2023-05-11T15:57:04;98460.19;;;15.37;65.25
48792;BME280;34587;48.816;9.420;2023-05-11T15:59:30;98461.94;;;14.96;67.45
48792;BME280;34587;48.816;9.420;2023-05-11T16:01:56;98462.38;;;14.40;68.84
48792;BME280;34587;48.816;9.420;2023-05-11T16:04:22;98459.34;;;14.29;69.42
48792;BME280;34587;48.816;9.420;2023-05-11T16:06:47;98463.28;;;13.94;70.76
48792;BME280;34587;48.816;9.420;2023-05-11T16:09:12;98464.28;;;14.13;71.17
48792;BME280;34587;48.816;9.420;2023-05-11T16:11:37;98458.22;;;14.36;71.16
48792;BME280;34587;48.816;9.420;2023-05-11T16:14:03;98457.47;;;14.32;70.59
48792;BME280;34587;48.816;9.420;2023-05-11T16:16:28;98449.88;;;14.26;72.01
48792;BME280;34587;48.816;9.420;2023-05-11T16:18:54;98464.16;;;14.16;72.82
48792;BME280;34587;48.816;9.420;2023-05-11T16:21:19;98462.94;;;14.03;73.67
48792;BME280;34587;48.816;9.420;2023-05-11T16:23:44;98459.16;;;13.88;74.39
48792;BME280;34587;48.816;9.420;2023-05-11T16:26:10;98457.38;;;13.88;73.46
48792;BME280;34587;48.816;9.420;2023-05-11T16:28:35;98455.63;;;13.89;73.84
48792;BME280;34587;48.816;9.420;2023-05-11T16:31:00;98462.28;;;13.96;75.33
48792;BME280;34587;48.816;9.420;2023-05-11T16:33:26;98458.41;;;13.84;74.20
48792;BME280;34587;48.816;9.420;2023-05-11T16:35:51;98454.38;;;13.76;74.19
48792;BME280;34587;48.816;9.420;2023-05-11T16:38:18;98452.38;;;14.06;73.20
48792;BME280;34587;48.816;9.420;2023-05-11T16:40:44;98446.06;;;14.13;72.42
48792;BME280;34587;48.816;9.420;2023-05-11T16:43:09;98452.44;;;14.28;69.41
48792;BME280;34587;48.816;9.420;2023-05-11T16:45:35;98452.94;;;14.37;69.61
48792;BME280;34587;48.816;9.420;2023-05-11T16:48:00;98445.97;;;14.38;68.58
48792;BME280;34587;48.816;9.420;2023-05-11T16:50:26;98450.16;;;14.42;69.24
48792;BME280;34587;48.816;9.420;2023-05-11T16:52:51;98451.00;;;14.43;69.29
48792;BME280;34587;48.816;9.420;2023-05-11T16:55:16;98448.81;;;14.32;68.51
48792;BME280;34587;48.816;9.420;2023-05-11T16:57:43;98455.72;;;14.33;68.73
48792;BME280;34587;48.816;9.420;2023-05-11T17:00:09;98454.13;;;14.29;69.37
48792;BME280;34587;48.816;9.420;2023-05-11T17:02:34;98454.72;;;14.13;69.57
48792;BME280;34587;48.816;9.420;2023-05-11T17:04:59;98458.59;;;14.25;70.03
48792;BME280;34587;48.816;9.420;2023-05-11T17:07:25;98458.00;;;14.19;71.39
48792;BME280;34587;48.816;9.420;2023-05-11T17:09:50;98457.31;;;14.37;69.66
48792;BME280;34587;48.816;9.420;2023-05-11T17:12:20;98455.31;;;14.20;69.28
48792;BME280;34587;48.816;9.420;2023-05-11T17:14:45;98457.91;;;14.22;70.93
48792;BME280;34587;48.816;9.420;2023-05-11T17:17:11;98458.00;;;14.19;69.73
48792;BME280;34587;48.816;9.420;2023-05-11T17:19:36;98453.41;;;14.25;70.29
48792;BME280;34587;48.816;9.420;2023-05-11T17:22:02;98451.78;;;14.23;70.16
48792;BME280;34587;48.816;9.420;2023-05-11T17:24:28;98451.47;;;14.07;69.34
48792;BME280;34587;48.816;9.420;2023-05-11T17:26:54;98459.94;;;14.13;70.51
48792;BME280;34587;48.816;9.420;2023-05-11T17:29:19;98456.75;;;14.05;70.22
48792;BME280;34587;48.816;9.420;2023-05-11T17:31:45;98458.75;;;13.99;72.88
48792;BME280;34587;48.816;9.420;2023-05-11T17:34:12;98454.22;;;14.04;72.42
48792;BME280;34587;48.816;9.420;2023-05-11T17:36:37;98455.56;;;14.14;72.37
48792;BME280;34587;48.816;9.420;2023-05-11T17:39:03;98457.09;;;13.96;72.60
48792;BME280;34587;48.816;9.420;2023-05-11T17:41:29;98457.88;;;13.75;73.08
48792;BME280;34587;48.816;9.420;2023-05-11T17:43:54;98457.75;;;13.54;73.86
48792;BME280;34587;48.816;9.420;2023-05-11T17:46:19;98464.28;;;13.41;74.66